Rices Crossing, Texas
Current Conditions -  °F | °C
As of 11:58 PM on Sunday 25 Jan 2015 (Local Time) from KGRK Reporting Station
Clear Clear  
Wind Chill: 13°   Ceiling: Unl
Heat Index: 13°   Visibility: 10mi
Dew Point: -2°   Wind: 9mph
Humidity: 36%   Direction: 310°NW
Pressure: 30.21"   Gusts: NA
Location:  30.5793°N, 97.5096°W
Report Text: KGRK 260558Z AUTO 31008KT 10SM CLR 13/M02 A3021 RMK AO2 SLP228 T01291019 10156 20115 402040070 52007 $
Loading
Personal Weather Stations






























Interactive Weather Map New forecast layout! Learn more

10-Day Weather Forecast

Advertisements
Track Severe Weather on mobile